Time;durP1;ratioP1;P1;durP2;ratioP2;P2;SDS_P1;SDS_P2;PMS_P1;PMS_P2;Temp;Humidity;BMP_temperature;BMP_pressure;BME280_temperature;BME280_humidity;BME280_pressure;Samples;Min_cycle;Max_cycle;Signal;HPM_P1;HPM_P2
2022/05/25 00:01:00;;;;;;;7.00;4.57;;;15.50;99.90;;;15.81;73.15;101064.66;4844663;29;20058;-67
2022/05/25 00:03:32;;;;;;;4.95;3.90;;;15.40;99.90;;;15.78;73.30;101064.69;4845023;29;20102;-67
2022/05/25 00:06:01;;;;;;;5.30;4.18;;;15.40;99.90;;;15.77;73.31;101059.41;4844975;29;20056;-67
2022/05/25 00:08:35;;;;;;;5.75;4.53;;;15.40;99.90;;;15.81;72.87;101058.44;4844540;29;20492;-67
2022/05/25 00:11:05;;;;;;;5.72;3.92;;;15.40;99.90;;;15.85;72.69;101065.44;4844481;29;20046;-67
2022/05/25 00:13:33;;;;;;;5.05;3.65;;;15.50;99.90;;;15.78;72.78;101061.16;4828255;29;20412;-68
2022/05/25 00:16:01;;;;;;;5.95;3.95;;;15.40;99.90;;;15.76;72.87;101066.53;4828232;29;20085;-67
2022/05/25 00:18:31;;;;;;;6.82;4.55;;;15.40;99.90;;;15.56;72.64;101046.56;4844323;29;20091;-67
2022/05/25 00:20:59;;;;;;;7.28;4.22;;;15.40;99.90;;;15.60;72.68;101042.91;4844852;29;20077;-67
2022/05/25 00:23:28;;;;;;;5.90;3.97;;;15.30;99.90;;;15.71;72.79;101067.53;4828022;29;20077;-68
2022/05/25 00:25:56;;;;;;;7.32;4.22;;;15.30;99.90;;;15.73;72.85;101068.38;4844812;29;20050;-67
2022/05/25 00:28:25;;;;;;;6.18;3.70;;;15.30;99.90;;;15.71;72.89;101071.09;4844179;29;20046;-67
2022/05/25 00:30:54;;;;;;;5.18;4.00;;;15.30;99.90;;;15.71;73.05;101067.53;4844200;29;20553;-67
2022/05/25 00:33:23;;;;;;;6.45;4.03;;;15.30;99.90;;;15.69;73.28;101070.25;4844401;29;20098;-67
2022/05/25 00:35:52;;;;;;;5.28;3.70;;;15.30;99.90;;;15.65;73.48;101071.22;4844085;29;20050;-67
2022/05/25 00:38:21;;;;;;;5.75;4.00;;;15.30;99.90;;;15.63;73.75;101067.72;4844059;29;20098;-67
2022/05/25 00:40:49;;;;;;;7.65;4.00;;;15.30;99.90;;;15.62;73.89;101073.09;4827864;29;20135;-67
2022/05/25 00:43:17;;;;;;;6.35;3.97;;;15.20;99.90;;;15.58;73.97;101060.72;4844540;29;20090;-67
2022/05/25 00:45:50;;;;;;;8.05;4.40;;;15.20;99.90;;;15.55;74.00;101077.66;4843833;29;20508;-67
2022/05/25 00:48:24;;;;;;;9.32;4.63;;;15.10;99.90;;;15.47;74.07;101078.72;4843185;29;20125;-67
2022/05/25 00:53:43;;;;;;;7.20;4.50;;;15.10;99.90;;;15.11;75.00;101051.03;4844146;29;20090;-67
2022/05/25 00:56:16;;;;;;;9.02;4.10;;;15.00;99.90;;;15.30;75.69;101087.94;4844108;29;20420;-67
2022/05/25 00:58:48;;;;;;;9.38;4.40;;;14.90;99.90;;;15.21;76.29;101068.59;4843733;29;20052;-67
2022/05/25 01:01:17;;;;;;;8.98;4.75;;;14.90;99.90;;;15.30;76.66;101087.94;4843667;29;20114;-67
2022/05/25 01:03:45;;;;;;;11.57;4.82;;;15.00;99.90;;;15.28;76.81;101084.41;4843587;29;20049;-67
2022/05/25 01:06:43;;;;;;;14.10;5.82;;;15.00;99.90;;;15.29;77.20;101088.81;4843782;29;20081;-67
2022/05/25 01:09:25;;;;;;;7.00;5.95;;;14.90;99.90;;;15.22;77.90;101073.88;4843450;29;20125;-67
2022/05/25 01:12:08;;;;;;;10.30;6.38;;;14.90;99.90;;;15.30;78.51;101090.59;4842556;29;20057;-67
2022/05/25 01:15:05;;;;;;;13.88;7.50;;;14.90;99.90;;;15.37;78.95;101086.00;4843727;29;20060;-67
2022/05/25 01:17:47;;;;;;;14.48;7.68;;;15.00;99.90;;;15.38;79.06;101090.44;4843710;29;20140;-67
2022/05/25 01:20:27;;;;;;;13.10;7.70;;;15.10;99.90;;;15.25;79.43;101063.13;4843405;29;20061;-67
2022/05/25 01:23:35;;;;;;;14.00;8.50;;;15.00;99.90;;;15.43;79.57;101088.56;4843343;29;20508;-67
2022/05/25 01:27:13;;;;;;;13.80;7.72;;;15.00;99.90;;;15.42;79.90;101092.16;4827072;29;20050;-67
2022/05/25 01:29:58;;;;;;;14.20;8.63;;;15.10;99.90;;;15.40;79.84;101085.94;4825062;29;20077;-67
2022/05/25 01:32:33;;;;;;;17.98;9.10;;;15.10;99.90;;;15.41;80.33;101090.34;4843152;29;20141;-67
2022/05/25 01:35:09;;;;;;;14.07;9.65;;;15.00;99.90;;;15.41;80.34;101093.03;4843373;29;20140;-67
2022/05/25 01:37:47;;;;;;;17.15;10.02;;;15.10;99.90;;;15.42;80.33;101099.28;4843052;29;20053;-68
2022/05/25 01:40:23;;;;;;;15.80;9.32;;;15.00;99.90;;;15.46;80.08;101091.19;4842938;29;20046;-68
2022/05/25 01:42:56;;;;;;;20.05;9.73;;;15.00;99.90;;;15.41;80.56;101092.16;4842964;29;20148;-67
2022/05/25 01:45:30;;;;;;;16.92;9.95;;;15.00;99.90;;;15.42;80.34;101099.28;4842944;29;20042;-67
2022/05/25 01:48:05;;;;;;;14.50;9.68;;;15.00;99.90;;;15.41;80.27;101094.84;4843132;29;20046;-67
2022/05/25 01:50:39;;;;;;;20.17;10.73;;;15.00;99.90;;;15.40;80.44;101104.63;4842849;29;20046;-67
2022/05/25 01:53:10;;;;;;;16.15;10.32;;;15.00;99.90;;;15.38;79.99;101088.66;4842544;29;20432;-67
2022/05/25 01:55:42;;;;;;;17.95;11.18;;;15.00;99.90;;;15.37;80.40;101102.00;4842998;29;20475;-67
2022/05/25 01:58:16;;;;;;;16.70;9.88;;;14.90;99.90;;;15.37;80.22;101105.53;4842794;29;20126;-67
2022/05/25 02:00:49;;;;;;;17.95;10.18;;;14.90;99.90;;;15.36;80.30;101108.25;4842585;29;20046;-67
2022/05/25 02:06:31;;;;;;;16.80;10.43;;;14.90;99.90;;;15.33;80.23;101114.50;4842668;29;20445;-67
2022/05/25 02:09:16;;;;;;;14.93;10.90;;;14.90;99.90;;;15.23;80.43;101112.06;4842568;29;20042;-67
2022/05/25 02:11:48;;;;;;;16.67;10.07;;;14.90;99.90;;;15.29;80.63;101102.16;4842654;29;20080;-67
2022/05/25 02:14:33;;;;;;;19.17;11.25;;;14.90;99.90;;;15.28;80.60;101107.50;4842847;29;20488;-67
2022/05/25 02:17:27;;;;;;;13.73;10.63;;;14.90;99.90;;;15.31;80.41;101111.00;4826202;29;20079;-67
2022/05/25 02:20:01;;;;;;;16.30;10.40;;;14.90;99.90;;;15.24;80.24;101096.03;4842461;29;20083;-67
2022/05/25 02:22:39;;;;;;;16.92;11.38;;;14.90;99.90;;;15.26;80.04;101107.56;4841452;29;20084;-67
2022/05/25 02:25:23;;;;;;;17.40;10.98;;;14.90;99.90;;;15.20;80.16;101107.66;4842696;29;20081;-67
2022/05/25 02:28:01;;;;;;;18.33;11.07;;;14.80;99.90;;;15.17;80.81;101107.75;4842315;29;20458;-67
2022/05/25 02:30:33;;;;;;;17.27;10.55;;;14.80;99.90;;;15.08;80.60;101097.25;4842366;29;20117;-67
2022/05/25 02:33:10;;;;;;;14.35;9.73;;;14.80;99.90;;;14.70;80.74;101025.19;4842317;29;20042;-67
2022/05/25 02:35:42;;;;;;;17.38;10.98;;;14.80;99.90;;;15.17;80.75;101110.41;4842352;29;20034;-67
2022/05/25 02:38:11;;;;;;;14.82;11.13;;;14.80;99.90;;;15.25;80.72;101104.94;4842330;29;20070;-67
2022/05/25 02:40:41;;;;;;;13.50;10.70;;;14.80;99.90;;;15.23;80.69;101112.94;4842287;29;20046;-67
2022/05/25 02:43:10;;;;;;;13.13;10.53;;;14.90;99.90;;;15.27;80.97;101113.78;4841039;29;20061;-67
2022/05/25 02:45:40;;;;;;;20.48;11.30;;;14.90;99.90;;;15.06;81.21;101111.53;4842217;29;20346;-67
2022/05/25 02:48:10;;;;;;;21.05;11.20;;;14.90;99.90;;;15.30;81.02;101113.69;4842342;29;20054;-67
2022/05/25 02:50:38;;;;;;;20.57;11.70;;;14.90;99.90;;;15.30;80.72;101119.91;4842213;29;20049;-67
2022/05/25 02:53:10;;;;;;;15.68;11.27;;;14.90;99.90;;;15.22;80.46;101124.50;4842345;29;20408;-67
2022/05/25 02:55:38;;;;;;;17.70;11.32;;;14.90;99.90;;;15.12;81.09;101125.59;4842204;29;20476;-67
2022/05/25 02:58:07;;;;;;;15.52;11.82;;;14.80;99.90;;;15.06;81.24;101125.69;4842638;29;20438;-67
2022/05/25 03:00:35;;;;;;;17.10;12.13;;;14.70;99.90;;;15.06;81.29;101123.03;4842089;29;20100;-67
2022/05/25 03:03:06;;;;;;;17.33;11.18;;;14.70;99.90;;;15.01;81.50;101129.34;4842028;29;20046;-67
2022/05/25 03:05:37;;;;;;;16.23;11.80;;;14.70;99.90;;;14.97;82.14;101131.22;4841969;29;20133;-67
2022/05/25 03:08:06;;;;;;;16.10;11.17;;;14.60;99.90;;;14.97;82.30;101131.22;4825825;29;20149;-67
2022/05/25 03:10:34;;;;;;;14.07;10.90;;;14.60;99.90;;;15.03;82.34;101139.09;4841043;29;20386;-67
2022/05/25 03:13:05;;;;;;;15.82;10.75;;;14.60;99.90;;;15.07;82.04;101138.13;4845518;29;20081;-67
2022/05/25 03:15:34;;;;;;;17.00;11.10;;;14.60;99.90;;;15.03;81.70;101151.53;4829319;29;20153;-67
2022/05/25 03:18:03;;;;;;;13.20;10.75;;;14.60;99.90;;;14.95;81.97;101157.00;4845708;29;20498;-67
2022/05/25 03:20:32;;;;;;;18.63;11.13;;;14.60;99.90;;;14.99;81.65;101155.16;4845409;29;20134;-67
2022/05/25 03:23:01;;;;;;;14.05;10.40;;;14.60;99.90;;;14.97;81.77;101154.28;4845326;29;20141;-67
2022/05/25 03:25:30;;;;;;;16.63;10.43;;;14.60;99.90;;;14.98;81.70;101156.06;4845317;29;20074;-67
2022/05/25 03:28:02;;;;;;;13.85;10.63;;;14.60;99.90;;;14.91;82.07;101165.06;4845276;29;20076;-67
2022/05/25 03:30:31;;;;;;;18.55;11.30;;;14.50;99.90;;;14.90;82.20;101160.66;4845470;29;20077;-67
2022/05/25 03:33:02;;;;;;;15.35;10.80;;;14.50;99.90;;;14.86;82.15;101167.81;4845227;29;20069;-67
2022/05/25 03:35:32;;;;;;;19.48;12.45;;;14.50;99.90;;;14.66;82.39;101140.63;4845176;29;20412;-67
2022/05/25 03:38:02;;;;;;;18.02;11.55;;;14.50;99.90;;;14.75;82.57;101164.44;4845371;29;20081;-67
2022/05/25 03:40:30;;;;;;;19.93;11.50;;;14.40;99.90;;;14.75;82.69;101156.44;4845322;29;20124;-67
2022/05/25 03:43:01;;;;;;;20.63;12.07;;;14.40;99.90;;;14.73;83.01;101163.56;4844990;29;20130;-67
2022/05/25 03:45:29;;;;;;;;;;;14.40;99.90;;;14.72;83.33;101167.16;4845435;29;20079;-67
2022/05/25 03:47:57;;;;;;;20.35;13.00;;;14.40;99.90;;;14.68;83.65;101165.44;4843683;29;19928;-67
2022/05/25 03:50:26;;;;;;;19.73;12.63;;;14.40;99.90;;;14.75;83.67;101167.09;4845107;29;20048;-67
2022/05/25 03:52:54;;;;;;;19.88;12.73;;;14.40;99.90;;;14.56;84.14;101136.34;4844613;29;20058;-67
2022/05/25 03:55:24;;;;;;;22.52;13.25;;;14.40;99.90;;;14.67;84.51;101158.38;4844857;29;20132;-67
2022/05/25 03:57:52;;;;;;;19.98;13.95;;;14.30;99.90;;;14.68;84.90;101165.44;4845055;29;20110;-67
2022/05/25 04:00:21;;;;;;;19.10;14.18;;;14.40;99.90;;;14.70;85.25;101168.97;4844969;29;20056;-68
2022/05/25 04:02:49;;;;;;;21.70;14.75;;;14.30;99.90;;;14.77;85.22;101165.28;4844592;29;20416;-67
2022/05/25 04:05:21;;;;;;;22.30;14.35;;;14.40;99.90;;;14.81;85.82;101177.66;4844854;29;20296;-67
2022/05/25 04:07:50;;;;;;;25.05;15.35;;;14.40;99.90;;;14.65;86.47;101138.88;4844951;29;20049;-76
2022/05/25 04:10:20;;;;;;;21.55;15.05;;;14.50;99.90;;;14.92;86.86;101178.38;4844381;29;20125;-71
2022/05/25 04:12:50;;;;;;;22.83;15.85;;;14.50;99.90;;;14.98;86.94;101174.72;4844333;29;20542;-64
2022/05/25 04:15:22;;;;;;;25.42;16.13;;;14.60;99.90;;;15.00;87.19;101173.75;4844495;29;20074;-65
2022/05/25 04:17:51;;;;;;;26.83;16.42;;;14.60;99.90;;;15.01;87.40;101174.66;4844666;29;20050;-65
2022/05/25 04:20:21;;;;;;;24.50;16.55;;;14.60;99.90;;;15.00;87.16;101175.56;4828051;29;20054;-63
2022/05/25 04:22:50;;;;;;;22.90;16.73;;;14.70;99.90;;;14.99;87.30;101169.34;4844582;29;20061;-65
2022/05/25 04:25:23;;;;;;;29.42;17.38;;;14.70;99.90;;;14.86;87.42;101170.47;4844234;29;20049;-65
2022/05/25 04:27:56;;;;;;;23.25;17.25;;;14.60;99.90;;;14.78;87.56;101151.09;4844492;29;20046;-64
2022/05/25 04:30:29;;;;;;;25.00;16.77;;;14.60;99.90;;;14.82;87.86;101157.22;4844425;29;20050;-65
2022/05/25 04:32:58;;;;;;;21.02;16.83;;;14.60;99.90;;;14.90;87.85;101171.31;4844211;29;20061;-64
2022/05/25 04:35:27;;;;;;;25.00;17.00;;;14.60;99.90;;;14.91;88.06;101168.59;4844320;29;20089;-64
2022/05/25 04:37:56;;;;;;;28.23;17.58;;;14.60;99.90;;;14.86;88.36;101164.25;4844033;29;20056;-64
2022/05/25 04:40:29;;;;;;;24.55;17.30;;;14.60;99.90;;;14.91;88.43;101173.03;4843953;29;20118;-63
2022/05/25 04:43:01;;;;;;;29.00;17.70;;;14.60;99.90;;;14.92;88.48;101169.50;4827723;29;20425;-65
2022/05/25 04:45:31;;;;;;;28.90;16.65;;;14.60;99.90;;;14.95;88.44;101166.75;4843877;29;20049;-65
2022/05/25 04:48:02;;;;;;;26.50;16.17;;;14.60;99.90;;;14.77;88.56;101135.13;4843882;29;20496;-64
2022/05/25 04:50:34;;;;;;;27.98;16.52;;;14.60;99.90;;;14.93;88.62;101169.47;4827539;29;20049;-64
2022/05/25 04:53:03;;;;;;;27.95;17.05;;;14.60;99.90;;;14.92;88.85;101162.38;4843558;29;20053;-64
2022/05/25 04:58:22;;;;;;;26.70;17.13;;;14.70;99.90;;;14.95;89.21;101149.00;4843839;29;20070;-64
2022/05/25 05:00:51;;;;;;;26.20;17.23;;;14.70;99.90;;;15.03;89.05;101160.41;4843679;29;20073;-65
2022/05/25 05:03:21;;;;;;;28.20;16.77;;;14.70;99.90;;;14.55;89.19;101070.72;4843618;29;20526;-64
2022/05/25 05:05:51;;;;;;;28.35;16.70;;;14.70;99.90;;;15.11;89.14;101173.59;4843857;29;20042;-65
2022/05/25 05:08:19;;;;;;;31.00;18.35;;;14.80;99.90;;;15.09;89.00;101165.63;4843749;29;20454;-64
2022/05/25 05:10:49;;;;;;;26.65;18.48;;;14.80;99.90;;;15.06;89.20;101167.47;4843393;29;20129;-64
2022/05/25 05:13:19;;;;;;;26.13;19.13;;;14.70;99.90;;;15.07;89.30;101169.22;4842403;29;20081;-64
2022/05/25 05:15:50;;;;;;;33.80;21.27;;;14.80;99.90;;;15.01;88.97;101177.31;4842510;29;20074;-65
2022/05/25 05:18:23;;;;;;;32.13;20.30;;;14.70;99.90;;;14.99;89.69;101171.13;4843394;29;20050;-65
2022/05/25 05:21:12;;;;;;;34.95;22.55;;;14.70;99.90;;;14.98;89.90;101164.91;4839688;29;20105;-65
2022/05/25 05:23:41;;;;;;;34.63;22.70;;;14.70;99.90;;;14.93;90.33;101161.47;4843222;29;20054;-64
2022/05/25 05:26:10;;;;;;;33.67;21.40;;;14.70;99.90;;;15.14;90.36;101177.06;4843154;29;20571;-65
2022/05/25 05:28:42;;;;;;;33.15;22.77;;;14.80;99.90;;;15.13;90.16;101167.34;4843408;29;20129;-65
2022/05/25 05:31:11;;;;;;;34.58;21.48;;;14.80;99.90;;;15.06;90.69;101176.31;4843067;29;20110;-65
2022/05/25 05:33:40;;;;;;;31.30;21.98;;;14.70;99.90;;;15.21;90.50;101180.50;4842657;29;20054;-65
2022/05/25 05:36:13;;;;;;;32.53;21.13;;;14.80;99.90;;;15.28;90.62;101175.03;4843279;29;20070;-65
2022/05/25 05:38:49;;;;;;;37.08;22.67;;;15.00;99.90;;;15.34;90.35;101185.59;4842921;29;20042;-65
2022/05/25 05:41:20;;;;;;;35.13;22.88;;;15.00;99.90;;;15.36;90.22;101186.44;4843499;29;20073;-65
2022/05/25 05:43:50;;;;;;;38.47;24.15;;;15.00;99.90;;;15.36;89.92;101175.78;4843210;29;20152;-65
2022/05/25 05:46:19;;;;;;;40.15;24.67;;;15.00;99.90;;;15.38;89.79;101176.63;4842872;29;20497;-65
2022/05/25 05:48:48;;;;;;;38.13;26.00;;;15.10;99.90;;;15.28;89.53;101177.69;4842731;29;20500;-65
2022/05/25 05:51:16;;;;;;;37.70;25.70;;;15.00;99.90;;;15.34;89.67;101182.03;4842882;29;20536;-65
2022/05/25 05:53:45;;;;;;;37.63;27.55;;;15.00;99.90;;;15.31;89.26;101195.44;4843151;29;20114;-65
2022/05/25 05:56:19;;;;;;;39.35;26.17;;;15.00;99.90;;;15.30;89.81;101191.00;4842947;29;20041;-65
2022/05/25 05:58:53;;;;;;;37.72;27.38;;;15.00;99.90;;;15.31;90.16;101193.63;4842896;29;20110;-65
2022/05/25 06:01:22;;;;;;;37.00;28.02;;;15.00;99.90;;;15.35;90.21;101187.34;4842579;29;20050;-64
2022/05/25 06:03:52;;;;;;;43.00;27.58;;;15.00;99.90;;;15.41;90.04;101198.81;4842600;29;20049;-65
2022/05/25 06:06:23;;;;;;;42.28;27.17;;;15.10;99.90;;;15.55;90.31;101199.44;4842900;29;20046;-64
2022/05/25 06:08:52;;;;;;;35.95;26.23;;;15.20;99.90;;;15.65;90.54;101209.00;4842700;29;20054;-65
2022/05/25 06:11:22;;;;;;;34.88;25.60;;;15.30;99.90;;;15.58;89.28;101205.56;4842410;29;20053;-64
2022/05/25 06:13:51;;;;;;;36.45;25.77;;;15.30;99.90;;;15.48;89.15;101211.13;4841401;29;20095;-66
2022/05/25 06:22:00;;;;;;;35.33;25.25;;;15.40;99.90;;;15.64;89.61;101213.47;4842451;29;20073;-67
2022/05/25 06:24:32;;;;;;;37.78;24.73;;;15.40;99.90;;;15.65;89.33;101214.34;4826357;29;20470;-67
2022/05/25 06:27:01;;;;;;;35.80;24.42;;;15.30;99.90;;;15.64;88.45;101205.47;4842382;29;20046;-71
2022/05/25 06:29:29;;;;;;;29.98;22.42;;;15.30;99.90;;;15.66;88.72;101234.78;4842648;29;20073;-70
2022/05/25 06:31:58;;;;;;;36.25;24.40;;;15.30;99.90;;;15.75;88.45;101223.94;4842515;29;20102;-69
2022/05/25 06:34:27;;;;;;;37.38;24.27;;;15.40;99.90;;;15.62;87.60;101223.28;4842277;29;20054;-70
2022/05/25 06:36:55;;;;;;;37.75;25.15;;;15.40;99.90;;;15.64;87.90;101236.59;4842192;29;20085;-68
2022/05/25 06:39:23;;;;;;;35.70;23.83;;;15.30;99.90;;;15.61;87.57;101225.97;4826169;29;20050;-69
2022/05/25 06:41:52;;;;;;;33.58;23.95;;;15.30;99.90;;;15.58;87.57;101221.56;4842454;29;20050;-69
2022/05/25 06:44:20;;;;;;;36.67;23.73;;;15.30;99.90;;;15.50;87.52;101222.66;4840939;29;20081;-69
2022/05/25 06:46:49;;;;;;;30.02;23.73;;;15.20;99.90;;;15.60;87.51;101237.56;4843786;29;20046;-69
2022/05/25 06:49:19;;;;;;;34.60;23.52;;;15.30;99.90;;;15.71;88.04;101225.78;4846190;29;20046;-68
2022/05/25 06:51:47;;;;;;;35.78;24.23;;;15.40;99.90;;;14.96;87.53;101097.47;4846291;29;20050;-69
2022/05/25 06:54:18;;;;;;;30.33;24.75;;;15.40;99.90;;;15.80;88.53;101244.28;4828362;29;20084;-69
2022/05/25 06:56:47;;;;;;;34.50;23.88;;;15.50;99.90;;;15.93;87.57;101247.59;4844652;29;20053;-69
2022/05/25 06:59:15;;;;;;;31.55;22.92;;;15.60;99.90;;;15.97;87.06;101231.47;4844546;29;20082;-69
2022/05/25 07:01:43;;;;;;;33.75;22.50;;;15.70;99.90;;;15.92;86.38;101230.69;4844564;29;20049;-69
2022/05/25 07:04:12;;;;;;;30.33;21.20;;;15.70;99.90;;;15.87;85.95;101237.03;4844316;29;20072;-69
2022/05/25 07:06:42;;;;;;;29.45;21.70;;;15.60;99.90;;;16.02;85.88;101247.38;4844352;29;20412;-69
2022/05/25 07:09:12;;;;;;;32.77;22.37;;;15.60;99.90;;;16.02;85.31;101250.06;4845198;29;20050;-68
2022/05/25 07:11:42;;;;;;;36.88;21.85;;;15.70;99.90;;;16.08;84.91;101249.94;4844323;29;20429;-68
2022/05/25 07:14:14;;;;;;;26.98;21.20;;;15.70;99.90;;;16.20;85.21;101253.22;4844752;29;20136;-69
2022/05/25 07:16:44;;;;;;;27.67;21.42;;;15.80;99.90;;;16.28;84.88;101253.03;4844279;29;20053;-70
2022/05/25 07:19:12;;;;;;;32.55;20.05;;;15.90;99.90;;;16.28;84.51;101243.25;4844321;29;20050;-69
2022/05/25 07:21:42;;;;;;;25.80;18.30;;;15.90;99.90;;;16.34;84.22;101239.56;4844472;29;20136;-70
2022/05/25 07:24:11;;;;;;;25.90;18.27;;;16.00;99.90;;;16.37;83.77;101252.88;4844064;29;20102;-68
2022/05/25 07:26:39;;;;;;;30.00;18.65;;;16.10;99.90;;;16.53;84.63;101248.94;4843913;29;20102;-67
2022/05/25 07:29:07;;;;;;;31.48;19.25;;;16.20;99.90;;;16.65;84.24;101253.13;4843176;29;20057;-68
2022/05/25 07:31:42;;;;;;;26.52;18.67;;;16.30;99.90;;;16.71;83.96;101253.88;4844038;29;20048;-68
2022/05/25 07:34:16;;;;;;;28.92;17.58;;;16.50;99.90;;;16.68;83.03;101245.06;4844069;29;20046;-68
2022/05/25 07:36:51;;;;;;;18.23;13.70;;;16.50;99.90;;;16.74;81.13;101248.44;4844079;29;20404;-70
2022/05/25 07:39:21;;;;;;;23.95;13.55;;;16.50;99.90;;;16.88;80.54;101267.72;4844141;29;20046;-68
2022/05/25 07:41:54;;;;;;;17.95;12.15;;;16.60;99.90;;;16.92;79.57;101260.50;4842962;29;20067;-66
2022/05/25 07:44:28;;;;;;;19.75;12.45;;;16.70;99.90;;;16.98;78.35;101263.91;4844005;29;20050;-67
2022/05/25 07:46:56;;;;;;;18.77;10.02;;;16.80;99.90;;;17.09;76.61;101261.00;4843836;29;20050;-65
2022/05/25 07:49:25;;;;;;;20.25;9.68;;;16.80;99.90;;;16.77;75.68;101188.72;4843773;29;20042;-68
2022/05/25 07:51:55;;;;;;;17.67;11.00;;;16.90;99.90;;;17.18;76.84;101247.38;4806646;29;1101366;-69
2022/05/25 07:54:24;;;;;;;;;;;17.00;99.90;;;17.14;74.99;101233.22;4829056;29;20053;-75
2022/05/25 07:56:52;;;;;;;16.90;9.27;;;17.00;99.90;;;17.28;73.96;101270.31;4844867;29;19925;-67
2022/05/25 07:59:21;;;;;;;17.13;9.02;;;17.00;99.90;;;17.32;74.28;101279.13;4844913;29;20137;-67
2022/05/25 08:07:34;;;;;;;16.70;8.40;;;17.20;99.90;;;17.50;74.46;101281.38;4828458;29;20446;-67
2022/05/25 08:10:07;;;;;;;20.92;8.80;;;17.20;99.90;;;17.37;73.35;101283.44;4843584;29;20054;-67
2022/05/25 08:12:37;;;;;;;17.85;8.25;;;17.10;99.90;;;17.55;74.30;101280.31;4844549;29;20553;-67
2022/05/25 08:15:08;;;;;;;14.85;7.65;;;17.20;99.90;;;17.71;74.41;101287.00;4844540;29;20070;-67
2022/05/25 08:17:37;;;;;;;12.63;6.95;;;17.30;99.90;;;17.71;72.73;101278.97;4844777;29;20404;-68
2022/05/25 08:20:07;;;;;;;14.20;6.03;;;17.40;99.90;;;17.80;71.90;101285.88;4844532;29;20579;-67
2022/05/25 08:22:38;;;;;;;;;;;17.50;99.90;;;18.04;71.59;101291.44;4844736;29;20106;-68
2022/05/25 08:25:09;;;;;;;15.90;7.13;;;17.60;99.90;;;18.10;70.72;101271.63;4844629;29;20010;-68
2022/05/25 08:27:39;;;;;;;33.70;7.55;;;17.70;99.90;;;18.10;70.69;101258.25;4844903;29;20050;-68
2022/05/25 08:30:10;;;;;;;18.95;8.20;;;17.80;99.90;;;18.23;71.11;101281.09;4844850;29;20053;-68
2022/05/25 08:32:40;;;;;;;12.80;7.25;;;17.90;99.90;;;18.30;71.61;101269.25;4844054;29;20198;-68
2022/05/25 08:35:09;;;;;;;14.75;7.13;;;18.00;99.90;;;18.18;69.53;101283.00;4844063;29;20471;-68
2022/05/25 08:37:39;;;;;;;10.60;4.55;;;17.90;99.90;;;17.95;66.39;101261.38;4844126;29;20050;-68
2022/05/25 08:40:09;;;;;;;8.30;3.50;;;17.80;99.90;;;17.86;60.94;101275.91;4844036;29;20049;-68
2022/05/25 08:42:48;;;;;;;14.55;3.47;;;17.70;99.90;;;17.64;60.98;101271.16;4844063;29;20298;-68
2022/05/25 08:45:18;;;;;;;7.47;4.03;;;17.40;99.90;;;17.62;62.37;101278.34;4844269;29;20061;-67
2022/05/25 08:47:56;;;;;;;10.63;4.75;;;17.30;99.90;;;17.51;63.54;101275.09;4844347;29;20053;-68
2022/05/25 08:50:25;;;;;;;8.73;3.58;;;17.20;99.90;;;17.63;63.26;101274.78;4843857;29;20492;-68
2022/05/25 08:52:59;;;;;;;12.10;3.95;;;17.30;99.90;;;17.61;63.56;101277.50;4843687;29;20054;-67
2022/05/25 08:55:46;;;;;;;13.68;4.00;;;17.30;99.90;;;17.56;62.42;101271.38;4842879;29;20086;-68
2022/05/25 08:58:15;;;;;;;11.57;3.88;;;17.20;99.90;;;17.45;62.94;101296.59;4843810;29;20382;-67
2022/05/25 09:00:46;;;;;;;10.00;4.10;;;17.10;99.90;;;17.35;62.74;101279.03;4843689;29;20050;-67
2022/05/25 09:03:23;;;;;;;15.90;4.00;;;17.10;99.90;;;17.30;63.17;101289.88;4842737;29;20543;-67
2022/05/25 09:06:00;;;;;;;10.95;4.22;;;17.00;99.90;;;17.10;63.33;101278.78;4843711;29;20077;-67
2022/05/25 09:08:40;;;;;;;8.68;4.18;;;16.90;99.90;;;17.01;63.31;101262.97;4843113;29;20077;-67
2022/05/25 09:11:12;;;;;;;;;;;16.80;99.90;;;17.49;62.66;101279.59;4827856;29;20496;-67
2022/05/25 09:13:50;;;;;;;6.97;4.00;;;17.10;99.90;;;17.56;59.20;101295.44;4843488;29;19924;-68
2022/05/25 09:16:27;;;;;;;9.13;3.50;;;17.20;99.90;;;17.81;59.76;101296.53;4843459;29;20045;-67
2022/05/25 09:19:05;;;;;;;16.00;4.30;;;17.40;99.90;;;18.02;58.63;101295.09;4843583;29;20437;-68
2022/05/25 09:21:37;;;;;;;10.35;3.70;;;17.70;99.90;;;17.65;59.04;101222.09;4843369;29;20077;-67
2022/05/25 09:24:12;;;;;;;11.27;3.88;;;17.80;99.90;;;18.46;58.29;101313.47;4843361;29;20053;-67
2022/05/25 09:26:42;;;;;;;10.85;3.83;;;18.10;99.90;;;18.63;58.16;101304.91;4842371;29;20476;-67
2022/05/25 09:29:13;;;;;;;13.40;3.67;;;18.30;99.90;;;18.33;55.54;101312.00;4843561;29;20465;-67
2022/05/25 09:31:47;;;;;;;7.93;3.65;;;18.10;99.90;;;18.22;56.34;101327.53;4842234;29;20079;-67
2022/05/25 09:34:36;;;;;;;7.95;3.67;;;18.00;99.90;;;18.37;55.65;101332.44;4843396;29;20488;-68
2022/05/25 09:37:12;;;;;;;7.53;4.07;;;18.00;99.90;;;18.34;56.56;101327.19;4843168;29;20121;-67
2022/05/25 09:39:46;;;;;;;9.85;3.08;;;18.00;99.90;;;18.23;55.10;101315.00;4843077;29;20126;-68
2022/05/25 09:42:19;;;;;;;14.52;3.58;;;18.00;99.90;;;18.07;55.42;101327.97;4843079;29;20103;-68
2022/05/25 09:44:52;;;;;;;14.18;3.50;;;17.80;99.90;;;18.15;55.57;101328.63;4843327;29;20046;-67
2022/05/25 09:47:27;;;;;;;10.18;3.47;;;17.80;99.90;;;18.02;55.72;101311.16;4843223;29;20042;-68
2022/05/25 09:49:59;;;;;;;9.48;3.58;;;17.90;99.90;;;18.30;57.19;101336.22;4843197;29;20046;-68
2022/05/25 09:52:36;;;;;;;9.95;3.55;;;18.00;99.90;;;18.58;56.95;101326.47;4842601;29;20477;-67
2022/05/25 09:55:12;;;;;;;6.80;2.90;;;18.30;99.90;;;18.86;56.15;101330.09;4843086;29;20053;-68
2022/05/25 09:57:47;;;;;;;6.07;3.15;;;18.50;99.90;;;18.86;56.41;101343.50;4843345;29;20049;-67
2022/05/25 10:00:22;;;;;;;9.48;4.10;;;18.60;99.90;;;18.87;56.79;101326.47;4842645;29;20050;-67
2022/05/25 10:02:59;;;;;;;8.23;3.50;;;18.60;99.90;;;18.71;56.09;101352.00;4842773;29;20042;-67
2022/05/25 10:05:32;;;;;;;8.05;3.47;;;18.50;99.90;;;18.76;57.23;101359.88;4842653;29;20421;-67
2022/05/25 10:08:16;;;;;;;10.20;4.05;;;18.40;99.90;;;18.38;56.82;101350.28;4842786;29;20057;-67
2022/05/25 10:10:55;;;;;;;7.60;3.88;;;18.10;99.90;;;18.19;56.90;101322.28;4842381;29;20499;-67
2022/05/25 10:13:27;;;;;;;8.32;3.95;;;18.00;99.90;;;18.38;56.24;101336.88;4842621;29;20066;-68
2022/05/25 10:15:56;;;;;;;8.23;3.80;;;18.10;99.90;;;18.40;56.55;101329.69;4842565;29;20042;-66
2022/05/25 10:18:37;;;;;;;7.88;3.45;;;18.20;99.90;;;18.56;56.30;101340.88;4843026;29;20049;-66
2022/05/25 10:21:11;;;;;;;8.52;3.35;;;18.20;99.90;;;18.80;57.99;101343.69;4842348;29;20082;-66
2022/05/25 10:23:43;;;;;;;6.68;3.20;;;18.40;99.90;;;18.93;57.34;101346.84;4841430;29;20087;-67
2022/05/25 10:26:19;;;;;;;7.95;3.60;;;18.60;99.90;;;18.87;57.06;101345.22;4842425;29;20567;-66
2022/05/25 10:28:54;;;;;;;8.43;3.85;;;18.50;99.90;;;18.89;56.97;101340.72;4842735;29;20675;-66
2022/05/25 10:37:18;;;;;;;6.93;3.50;;;18.50;99.90;;;18.63;57.10;101359.41;4841397;29;20084;-66
2022/05/25 10:40:00;;;;;;;7.93;3.38;;;18.30;99.90;;;18.71;58.59;101352.00;4842229;29;20049;-66
2022/05/25 10:42:45;;;;;;;9.90;3.35;;;18.30;99.90;;;18.74;56.96;101362.63;4842288;29;20050;-66
2022/05/25 10:45:19;;;;;;;7.75;3.83;;;18.40;99.90;;;18.66;56.53;101350.41;4841313;29;20124;-66
2022/05/25 10:48:07;;;;;;;11.05;3.97;;;18.40;99.90;;;18.64;57.32;101355.78;4842279;29;20042;-66
2022/05/25 10:50:45;;;;;;;9.15;3.67;;;18.30;99.90;;;18.79;57.91;101349.09;4842770;29;20080;-66
2022/05/25 10:53:41;;;;;;;14.60;3.65;;;18.40;99.90;;;18.88;57.05;101349.69;4841985;29;20065;-66